Data for 07/30/2014

Time Sea-Level Adjusted Pressure Absolute Pressure Temperature Relative Humidity Dew Point   
(mb) (inHg) (mb) (inHg) (C) (F) (%) (C) (F)
00:05 1025 30.27 854 25.22 18.4 65 46 6.7 44.1
00:10 1025 30.27 854 25.22 18.9 66 45 6.9 44.4
00:15 1025 30.27 854 25.22 19.3 66.7 45 7.1 44.7
00:20 1025 30.27 854 25.22 19.5 67.1 44 7 44.7
00:25 1025 30.27 854 25.22 19.6 67.3 44 7.1 44.8
00:30 1025 30.27 854 25.22 19.6 67.3 44 7.3 45.1
00:35 1025 30.27 854 25.22 19.5 67.2 44 7.2 45
00:40 1025 30.27 854 25.22 19.8 67.6 43 7 44.6
00:45 1025 30.27 854 25.22 20.1 68.2 42 6.9 44.5
00:50 1025 30.27 854 25.22 20.4 68.7 42 7.3 45.2
00:55 1025 30.27 854 25.22 20.3 68.5 42 7.2 44.9
01:00 1025 30.27 854 25.22 20.2 68.4 43 7.3 45.2
01:05 1025 30.27 854 25.22 20.2 68.3 43 7.2 45
01:10 1025 30.27 854 25.22 20.2 68.3 43 7.4 45.2
01:15 1025 30.27 854 25.22 20.1 68.1 43 7.4 45.3
01:20 1025 30.27 854 25.22 19.9 67.9 44 7.5 45.6
01:25 1025 30.27 854 25.22 19.6 67.4 45 7.5 45.6
01:30 1025 30.27 854 25.22 19.6 67.2 45 7.6 45.6
01:35 1025 30.27 854 25.22 19.6 67.3 45 7.6 45.7
01:40 1025 30.27 854 25.22 19.7 67.4 45 7.7 45.8
01:45 1025 30.27 854 25.22 19.6 67.4 46 7.7 45.9
01:50 1025 30.27 854 25.22 19.6 67.2 47 8 46.5
01:55 1025 30.27 854 25.22 18.5 65.3 50 7.9 46.2
02:00 1025 30.27 854 25.22 17.8 64 51 7.5 45.5
02:05 1025 30.27 854 25.22 18.1 64.5 49 7.3 45.1
02:10 1025 30.27 854 25.22 18.2 64.7 49 7.3 45.1
02:15 1025 30.27 854 25.22 17.9 64.3 49 7.3 45.2
02:20 1025 30.27 854 25.22 17.5 63.6 51 7.3 45.2
02:25 1025 30.27 854 25.22 17.3 63.1 52 7.5 45.5
02:30 1025 30.27 854 25.22 17.3 63.2 52 7.6 45.7
02:35 1025 30.27 854 25.22 17.4 63.2 53 7.7 45.9
02:40 1025 30.27 854 25.22 17.6 63.6 52 7.7 45.9
02:45 1025 30.27 854 25.22 17.6 63.8 52 7.9 46.2
02:50 1025 30.27 854 25.22 17.6 63.7 52 7.7 45.9
02:55 1025 30.27 854 25.22 17.9 64.1 51 7.8 46
03:00 1025 30.27 854 25.22 18 64.4 51 8 46.3
03:05 1025 30.27 854 25.22 17.8 64.1 53 8.2 46.8
03:10 1025 30.27 854 25.22 17.4 63.3 58 9.1 48.3
03:15 1025 30.27 854 25.22 17.2 63 55 8.3 46.9
03:20 1025 30.27 854 25.22 17.3 63.1 55 8.3 47
03:25 1025 30.27 854 25.22 17.7 63.9 53 8.1 46.5
03:30 1025 30.27 854 25.22 18.3 65 51 8.3 46.9
03:35 1025 30.27 854 25.22 18.3 64.9 52 8.5 47.3
03:40 1025 30.27 854 25.22 17.7 63.9 56 8.9 47.9
03:45 1025 30.27 854 25.22 16.4 61.5 59 8.4 47.1
03:50 1025 30.27 854 25.22 16.1 60.9 59 8.2 46.8
03:55 1025 30.27 854 25.22 16 60.8 59 8 46.4
04:00 1025 30.27 854 25.22 15.9 60.6 59 7.9 46.3
04:05 1025 30.27 854 25.22 16.1 60.9 57 7.7 45.9
04:10 1025 30.27 854 25.22 16.2 61.1 58 8 46.4
04:15 1025 30.27 854 25.22 16.5 61.7 57 8.1 46.6
04:20 1025 30.27 854 25.22 16.8 62.3 56 8.2 46.7
04:25 1025 30.27 854 25.22 16.9 62.4 57 8.4 47
04:30 1025 30.27 854 25.22 16.3 61.4 58 8.2 46.7
04:35 1025 30.27 854 25.22 15.9 60.6 59 8 46.5
04:40 1025 30.27 854 25.22 15.7 60.3 59 7.9 46.2
04:45 1025 30.27 854 25.22 15.6 60 59 7.7 45.8
04:50 1025 30.27 854 25.22 15.6 60 59 7.6 45.8
04:55 1025 30.27 854 25.22 15.6 60.1 59 7.7 45.8
05:00 1025 30.27 854 25.22 15.6 60.1 60 8 46.3
05:05 1025 30.27 854 25.22 15.5 59.9 61 8 46.4
05:10 1025 30.27 854 25.22 15.4 59.7 61 8.1 46.6
05:15 1025 30.27 854 25.22 15.4 59.8 60 7.8 46
05:20 1025 30.27 854 25.22 15.4 59.8 60 7.8 46.1
05:25 1025 30.27 854 25.22 15.5 60 60 7.8 46.1
05:30 1025 30.27 855 25.25 15.6 60 61 8.2 46.8
05:35 1025 30.27 855 25.25 15.5 59.8 59 7.7 45.8
05:40 1025 30.27 855 25.25 15.5 59.8 59 7.6 45.7
05:45 1025 30.27 855 25.25 15.6 60.1 59 7.8 46
05:50 1025 30.27 855 25.25 15.7 60.3 59 7.9 46.3
05:55 1025 30.27 855 25.25 16 60.7 59 8 46.4
06:00 1025 30.27 855 25.25 16.2 61.1 58 8.1 46.5
06:05 1025 30.27 855 25.25 16.4 61.6 58 8.4 47
06:10 1025 30.27 855 25.25 16.8 62.3 55 7.9 46.1
06:15 1025 30.27 855 25.25 17.2 63 54 8 46.4
06:20 1025 30.27 855 25.25 17.5 63.4 54 8.2 46.8
06:25 1026 30.3 855 25.25 17.7 63.8 57 9.1 48.3
06:30 1026 30.3 855 25.25 18 64.5 53 8.6 47.4
06:35 1026 30.3 855 25.25 18.6 65.4 52 8.7 47.6
06:40 1026 30.3 855 25.25 18.8 65.8 51 8.6 47.5
06:45 1026 30.3 855 25.25 18.9 66 50 8.5 47.3
06:50 1026 30.3 855 25.25 19 66.3 51 8.7 47.6
06:55 1026 30.3 855 25.25 19.6 67.3 48 8.4 47
07:00 1026 30.3 855 25.25 20 67.9 47 8.6 47.4
07:05 1026 30.3 855 25.25 19.7 67.4 48 8.5 47.3
07:10 1026 30.3 855 25.25 19.6 67.3 47 8.3 46.9
07:15 1025 30.27 855 25.25 19.7 67.5 45 7.7 45.8
07:20 1025 30.27 855 25.25 20 67.9 46 8.2 46.7
07:25 1025 30.27 855 25.25 19.9 67.8 47 8.2 46.8
07:30 1025 30.27 855 25.25 20.1 68.1 45 8 46.4
07:35 1025 30.27 855 25.25 20.3 68.5 45 8.2 46.8
07:40 1025 30.27 855 25.25 20.5 68.9 45 8.2 46.8
07:45 1025 30.27 855 25.25 21 69.8 44 8.4 47.1
07:50 1025 30.27 855 25.25 21.1 70 43 8.2 46.8
07:55 1025 30.27 855 25.25 21.1 70 43 8.1 46.6
08:00 1025 30.27 855 25.25 21.4 70.6 43 8.3 47
08:05 1025 30.27 855 25.25 21.7 71 42 8.3 47
08:10 1025 30.27 855 25.25 21.7 71 40 7.8 46.1
08:15 1025 30.27 855 25.25 21.9 71.4 42 8.4 47.2
08:20 1025 30.27 855 25.25 22.1 71.8 40 8.2 46.8
08:25 1025 30.27 855 25.25 22.4 72.3 39 8.1 46.6
08:30 1026 30.3 855 25.25 22.7 72.9 41 8.9 48
08:35 1025 30.27 855 25.25 23.1 73.5 42 9.6 49.3
08:40 1025 30.27 855 25.25 22.9 73.2 42 9.5 49.1
08:45 1025 30.27 855 25.25 22.7 72.9 42 9.2 48.5
08:50 1025 30.27 855 25.25 22.5 72.5 43 9.6 49.2
08:55 1025 30.27 855 25.25 22.6 72.6 41 9 48.2
09:00 1025 30.27 855 25.25 23.2 73.7 39 8.8 47.8
09:05 1025 30.27 855 25.25 23.4 74.1 39 8.8 47.9
09:10 1025 30.27 855 25.25 23.4 74.1 39 9 48.2
09:15 1025 30.27 855 25.25 23.2 73.8 39 8.8 47.9
09:20 1025 30.27 855 25.25 23.5 74.2 40 9.3 48.8
09:25 1025 30.27 855 25.25 23.6 74.4 39 8.9 48
09:30 1025 30.27 855 25.25 23.2 73.8 38 8.2 46.7
09:35 1025 30.27 855 25.25 23.9 74.9 37 8.5 47.4
09:40 1025 30.27 855 25.25 24.3 75.7 37 9.1 48.3
09:45 1025 30.27 855 25.25 25 76.9 34 8.3 47
09:50 1025 30.27 855 25.25 24.9 76.9 37 9.4 49
09:55 1025 30.27 855 25.25 24.7 76.5 33 7.7 45.9
10:00 1025 30.27 854 25.22 24.8 76.7 35 8.7 47.7
10:05 1025 30.27 854 25.22 25.2 77.4 31 7.1 44.8
10:10 1025 30.27 854 25.22 25.2 77.4 33 8 46.4
10:15 1025 30.27 854 25.22 25.5 77.9 31 7.6 45.6
10:20 1025 30.27 854 25.22 25.2 77.4 33 7.9 46.2
10:25 1025 30.27 854 25.22 25.6 78 33 8.2 46.7
10:30 1025 30.27 854 25.22 26 78.7 29 7 44.6
10:35 1025 30.27 854 25.22 26.2 79.2 24 4.5 40.1
10:40 1025 30.27 854 25.22 26.2 79.2 21 2.4 36.4
10:45 1025 30.27 854 25.22 26.8 80.2 21 3.1 37.7
10:50 1025 30.27 854 25.22 27.2 81 21 3.5 38.2
10:55 1025 30.27 854 25.22 27.3 81.2 19 1.9 35.4
11:00 1025 30.27 854 25.22 27.5 81.5 19 2.5 36.5
11:05 1025 30.27 854 25.22 28.1 82.5 17 1.3 34.3
11:10 1025 30.27 854 25.22 27.9 82.2 19 2.6 36.8
11:15 1025 30.27 854 25.22 27.7 81.9 19 2 35.6
11:20 1025 30.27 854 25.22 27.1 80.8 19 1.5 34.7
11:25 1025 30.27 854 25.22 27.1 80.8 18 0.9 33.7
11:30 1025 30.27 854 25.22 27.6 81.7 17 0.6 33.1
11:35 1025 30.27 854 25.22 28.8 83.9 15 0.2 32.3
11:40 1025 30.27 854 25.22 28.9 84 16 0.8 33.5
11:45 1025 30.27 854 25.22 28.2 82.8 21 3.8 38.8
11:50 1025 30.27 854 25.22 27.9 82.2 15 -0.7 30.8
11:55 1024 30.24 854 25.22 28.3 83 16 0.1 32.2
12:00 1024 30.24 854 25.22 28.9 84.1 15 -0.2 31.6
12:05 1024 30.24 854 25.22 28.7 83.6 15 -0 31.9
12:10 1024 30.24 854 25.22 28.1 82.6 16 0.5 32.8
12:15 1024 30.24 854 25.22 28.9 84 11 -4.1 24.6
12:20 1024 30.24 854 25.22 29 84.2 12 -3.1 26.5
12:25 1024 30.24 853 25.19 29.3 84.7 13 -1.3 29.6
12:30 1024 30.24 853 25.19 28.9 84 15 -0.2 31.7
12:35 1024 30.24 853 25.19 28.4 83.2 15 -0.3 31.5
12:40 1024 30.24 853 25.19 28.8 83.9 15 -0.4 31.3
12:45 1024 30.24 853 25.19 28.8 83.9 15 0.3 32.5
12:50 1024 30.24 853 25.19 28.5 83.2 15 -0.4 31.2
12:55 1024 30.24 853 25.19 28.9 83.9 15 -0 32
13:00 1024 30.24 853 25.19 30.1 86.1 14 -0.5 31.2
13:05 1024 30.24 853 25.19 30 86 14 0.2 32.4
13:10 1024 30.24 853 25.19 30.3 86.5 14 -0 31.9
13:15 1024 30.24 853 25.19 29.9 85.8 15 0.9 33.6
13:20 1024 30.24 853 25.19 29.9 85.8 14 0.2 32.4
13:25 1024 30.24 853 25.19 29.5 85 15 0.4 32.8
13:30 1024 30.24 853 25.19 29.3 84.8 14 -0.2 31.7
13:35 1024 30.24 853 25.19 29.6 85.2 14 -0.7 30.7
13:40 1024 30.24 853 25.19 29.6 85.2 14 -0.2 31.6
13:45 1024 30.24 853 25.19 29.2 84.6 14 -0.3 31.5
13:50 1024 30.24 853 25.19 30 86.1 13 -0.5 31
13:55 1024 30.24 853 25.19 30.7 87.2 14 0.3 32.5
14:00 1024 30.24 853 25.19 29.8 85.7 14 0.1 32.2
14:05 1023 30.21 853 25.19 29.4 84.8 14 -0.3 31.5
14:10 1023 30.21 853 25.19 29.6 85.3 13 -0.9 30.4
14:15 1023 30.21 853 25.19 30.4 86.6 14 0.1 32.2
14:20 1023 30.21 853 25.19 30.4 86.7 13 -0.3 31.4
14:25 1023 30.21 852 25.16 30.1 86.3 14 -0.3 31.5
14:30 1023 30.21 852 25.16 30.6 87 14 0.8 33.4
14:35 1023 30.21 852 25.16 29.6 85.2 14 0 32.1
14:40 1023 30.21 852 25.16 29.2 84.5 15 0.5 32.8
14:45 1023 30.21 852 25.16 29.3 84.7 15 0.2 32.3
14:50 1023 30.21 852 25.16 29 84.1 15 0 32
14:55 1023 30.21 852 25.16 29.8 85.7 14 -0.3 31.5
15:00 1023 30.21 852 25.16 30.1 86.1 14 -0.4 31.2
15:05 1023 30.21 852 25.16 30 86.1 14 0.2 32.4
15:10 1023 30.21 852 25.16 30 86 14 -0.2 31.6
15:15 1023 30.21 852 25.16 30.1 86.3 14 0 32.1
15:20 1023 30.21 852 25.16 29.9 85.8 14 0.2 32.4
15:25 1023 30.21 852 25.16 30.6 87 13 -0.3 31.5
15:30 1023 30.21 852 25.16 29.6 85.2 14 -0.4 31.2
15:35 1023 30.21 852 25.16 29.7 85.5 14 -0.5 31
15:40 1023 30.21 852 25.16 29.7 85.5 13 -0.8 30.5
15:45 1023 30.21 852 25.16 30.1 86.2 13 -1 30.3
15:50 1023 30.21 852 25.16 30 85.9 13 -1.2 29.9
15:55 1023 30.21 852 25.16 30.1 86.2 13 -1.5 29.3
16:00 1023 30.21 852 25.16 29.4 85 14 -1 30.3
16:05 1023 30.21 852 25.16 29 84.1 13 -1.7 29
16:10 1023 30.21 852 25.16 29 84.1 16 1 33.8
16:15 1023 30.21 852 25.16 28.7 83.7 21 4.2 39.6
16:20 1023 30.21 852 25.16 28.2 82.7 21 4.3 39.7
16:25 1023 30.21 852 25.16 28.1 82.6 21 4.3 39.8
16:30 1023 30.21 852 25.16 28.1 82.6 21 4.2 39.5
16:35 1023 30.21 852 25.16 28.1 82.5 21 3.9 39.1
16:40 1023 30.21 852 25.16 27.8 82 20 3 37.5
16:45 1023 30.21 852 25.16 27.7 81.8 19 2.3 36.2
16:50 1023 30.21 852 25.16 27.7 81.8 18 1.4 34.5
16:55 1023 30.21 852 25.16 27.6 81.7 18 1.2 34.2
17:00 1023 30.21 852 25.16 27.6 81.7 17 0.5 32.9
17:05 1023 30.21 852 25.16 27.8 82 18 1.5 34.7
17:10 1023 30.21 852 25.16 27.8 82 18 1.3 34.4
17:15 1023 30.21 852 25.16 27.9 82.2 18 1.5 34.7
17:20 1023 30.21 852 25.16 27.9 82.2 18 1.4 34.6
17:25 1023 30.21 852 25.16 27.8 82.1 18 1.6 34.9
17:30 1023 30.21 852 25.16 27.9 82.2 19 2.2 36
17:35 1023 30.21 852 25.16 27.7 81.9 18 1.2 34.2
17:40 1023 30.21 852 25.16 27.6 81.6 19 2.1 35.9
17:45 1023 30.21 852 25.16 27.5 81.4 19 2.2 35.9
17:50 1023 30.21 852 25.16 27.6 81.6 19 2.4 36.3
17:55 1023 30.21 852 25.16 27.6 81.7 19 2.4 36.3
18:00 1023 30.21 852 25.16 27.5 81.6 19 1.9 35.4
18:05 1023 30.21 852 25.16 27.4 81.4 20 2.7 36.8
18:10 1023 30.21 853 25.19 27.2 80.9 22 3.7 38.7
18:15 1023 30.21 853 25.19 26.9 80.5 22 4 39.1
18:20 1023 30.21 853 25.19 26.7 80.1 23 4.2 39.5
18:25 1023 30.21 853 25.19 26.5 79.7 24 4.7 40.5
18:30 1023 30.21 853 25.19 26.3 79.3 25 4.7 40.4
18:35 1023 30.21 853 25.19 26.2 79.2 26 5.5 41.9
18:40 1023 30.21 853 25.19 26 78.9 24 4.3 39.8
18:45 1023 30.21 853 25.19 25.9 78.7 25 4.8 40.6
18:50 1024 30.24 853 25.19 25.8 78.5 25 4.7 40.4
18:55 1024 30.24 853 25.19 25.7 78.2 25 4.2 39.6
19:00 1024 30.24 853 25.19 25.5 77.8 26 4.8 40.6
19:05 1024 30.24 853 25.19 25.5 77.9 24 3.7 38.6
19:10 1024 30.24 853 25.19 25.6 78.2 25 4.3 39.7
19:15 1024 30.24 853 25.19 25.5 77.8 26 4.8 40.6
19:20 1024 30.24 853 25.19 25.1 77.1 28 5.4 41.7
19:25 1024 30.24 853 25.19 24.7 76.5 29 5.6 42.2
19:30 1024 30.24 853 25.19 24.7 76.5 28 5.1 41.2
19:35 1024 30.24 853 25.19 24.6 76.3 29 5.7 42.3
19:40 1024 30.24 853 25.19 24.4 75.8 30 5.7 42.3
19:45 1024 30.24 853 25.19 24.1 75.4 28 4.8 40.7
19:50 1024 30.24 853 25.19 23.9 74.9 30 5.2 41.4
19:55 1024 30.24 853 25.19 23.6 74.4 31 5.6 42.1
20:00 1024 30.24 853 25.19 23.6 74.5 30 5.1 41.2
20:05 1024 30.24 853 25.19 23.6 74.4 28 4.4 39.9
20:10 1024 30.24 853 25.19 23.5 74.3 34 6.9 44.3
20:15 1024 30.24 853 25.19 23.3 73.9 33 6.1 43
20:20 1024 30.24 853 25.19 23.1 73.6 32 5.9 42.6
20:25 1024 30.24 853 25.19 23 73.3 33 5.9 42.7
20:30 1024 30.24 853 25.19 22.8 73 37 7.5 45.5
20:35 1024 30.24 853 25.19 22.8 73 33 5.8 42.5
20:40 1024 30.24 854 25.22 22.8 73 32 5.5 41.9
20:45 1024 30.24 854 25.22 22.6 72.6 38 7.6 45.6
20:50 1024 30.24 854 25.22 21.8 71.3 39 7.5 45.5
20:55 1024 30.24 854 25.22 21.3 70.3 42 7.9 46.2
21:00 1024 30.24 854 25.22 21 69.7 43 8.2 46.8
21:05 1024 30.24 854 25.22 20.5 68.9 43 7.5 45.5
21:10 1024 30.24 854 25.22 20.3 68.6 42 7 44.6
21:15 1024 30.24 854 25.22 20.2 68.3 41 6.8 44.2
21:20 1024 30.24 854 25.22 19.8 67.7 46 7.9 46.2
21:25 1024 30.24 854 25.22 19.1 66.5 46 7.3 45.1
21:30 1024 30.24 854 25.22 18.8 65.8 44 6.4 43.5
21:35 1025 30.27 854 25.22 18.9 65.9 42 5.8 42.5
21:40 1024 30.24 854 25.22 19.1 66.4 41 5.7 42.3
21:45 1024 30.24 854 25.22 19.3 66.7 44 6.9 44.4
21:50 1025 30.27 854 25.22 19.2 66.6 38 4.7 40.5
21:55 1025 30.27 854 25.22 19.2 66.5 40 5.3 41.5
22:00 1025 30.27 854 25.22 19 66.2 42 6.1 43
22:05 1025 30.27 854 25.22 19 66.1 39 4.9 40.8
22:10 1025 30.27 854 25.22 19.2 66.6 37 4.4 40
22:15 1025 30.27 854 25.22 19.3 66.7 40 5.5 41.9
22:20 1025 30.27 854 25.22 19.4 66.9 40 5.7 42.3
22:25 1025 30.27 854 25.22 18.3 65 44 6.1 42.9
22:30 1025 30.27 854 25.22 17.4 63.3 46 5.9 42.6
22:35 1025 30.27 854 25.22 17.3 63.1 46 5.8 42.4
22:40 1025 30.27 854 25.22 17.2 62.9 46 5.5 41.9
22:45 1025 30.27 854 25.22 17.2 63 46 5.7 42.2
22:50 1025 30.27 854 25.22 17.1 62.7 45 5.3 41.5
22:55 1025 30.27 854 25.22 17.2 63 45 5.2 41.3
23:00 1025 30.27 854 25.22 17.4 63.2 45 5.4 41.8
23:05 1025 30.27 854 25.22 17.5 63.5 42 4.7 40.5
23:10 1025 30.27 854 25.22 17.5 63.5 43 4.9 40.8
23:15 1025 30.27 854 25.22 17.5 63.4 43 4.8 40.6
23:20 1025 30.27 854 25.22 17.4 63.4 43 5 40.9
23:25 1025 30.27 854 25.22 17.4 63.2 44 5.1 41.2
23:30 1025 30.27 854 25.22 17.2 62.9 46 5.7 42.3
23:35 1025 30.27 854 25.22 17.2 63 43 4.8 40.6
23:40 1025 30.27 854 25.22 17.3 63.1 43 4.6 40.3
23:45 1025 30.27 854 25.22 17.2 63 43 4.8 40.6
23:50 1025 30.27 854 25.22 17 62.7 44 4.7 40.5
23:55 1025 30.27 854 25.22 16.9 62.4 45 4.8 40.7
24:00 1025 30.27 854 25.22 16.8 62.3 45 4.8 40.7